Time;durP1;ratioP1;P1;durP2;ratioP2;P2;SDS_P1;SDS_P2;PMS_P1;PMS_P2;Temp;Humidity;BMP_temperature;BMP_pressure;BME280_temperature;BME280_humidity;BME280_pressure;Samples;Min_cycle;Max_cycle;Signal;HPM_P1;HPM_P2
2021/06/06 00:00:50;;;;;;;0.52;0.50;;;;;;;14.76;65.74;101264.97;6287829;22;20017;-78
2021/06/06 00:03:23;;;;;;;0.37;0.30;;;;;;;14.69;66.23;101253.41;6288692;22;20329;-79
2021/06/06 00:05:59;;;;;;;1.10;1.10;;;;;;;14.79;66.00;101267.19;6318034;22;19995;-77
2021/06/06 00:08:26;;;;;;;1.45;1.35;;;;;;;14.69;66.48;101250.66;6289522;22;20010;-76
2021/06/06 00:10:59;;;;;;;0.70;0.70;;;;;;;14.77;65.84;101263.84;6281075;22;20003;-77
2021/06/06 00:13:28;;;;;;;0.70;0.50;;;;;;;14.83;65.86;101261.94;6290069;22;20006;-77
2021/06/06 00:15:54;;;;;;;0.70;0.70;;;;;;;14.84;65.98;101253.41;6310308;22;20003;-76
2021/06/06 00:18:19;;;;;;;0.60;0.55;;;;;;;14.91;66.14;101263.31;6266601;22;20038;-75
2021/06/06 00:20:44;;;;;;;1.48;0.45;;;;;;;14.96;66.15;101266.09;6290690;22;20060;-76
2021/06/06 00:23:11;;;;;;;0.40;0.35;;;;;;;14.99;65.68;101262.78;6285167;22;20031;-76
2021/06/06 00:25:38;;;;;;;0.40;0.40;;;;;;;15.01;65.67;101269.66;6289084;22;20007;-77
2021/06/06 00:28:05;;;;;;;0.52;0.25;;;;;;;15.06;65.73;101268.00;6264862;22;20018;-74
2021/06/06 00:30:31;;;;;;;0.55;0.43;;;;;;;15.07;65.89;101262.22;6315250;22;20010;-75
2021/06/06 00:32:57;;;;;;;0.40;0.40;;;;;;;15.13;65.93;101263.88;6289750;22;20027;-75
2021/06/06 00:35:23;;;;;;;0.38;0.38;;;;;;;15.15;65.73;101269.91;6265282;22;20007;-74
2021/06/06 00:37:49;;;;;;;0.38;0.30;;;;;;;15.17;65.39;101267.72;6326296;22;20019;-75
2021/06/06 00:40:22;;;;;;;0.60;0.60;;;;;;;15.19;65.32;101272.97;6292768;22;20035;-75
2021/06/06 00:42:48;;;;;;;0.30;0.30;;;;;;;15.20;65.36;101271.88;6316838;22;20087;-74
2021/06/06 00:45:17;;;;;;;0.55;0.40;;;;;;;15.23;65.51;101270.47;6289281;22;20341;-76
2021/06/06 00:47:43;;;;;;;0.25;0.25;;;;;;;15.26;65.58;101275.41;6289175;22;20081;-76
2021/06/06 00:50:21;;;;;;;2.15;0.40;;;;;;;15.28;65.65;101268.53;6315948;22;20067;-76
2021/06/06 00:52:50;;;;;;;0.68;0.60;;;;;;;15.30;65.61;101263.59;6312154;22;20026;-77
2021/06/06 00:55:17;;;;;;;0.30;0.30;;;;;;;15.37;65.62;101266.06;6290048;22;20547;-77
2021/06/06 00:57:43;;;;;;;0.47;0.47;;;;;;;15.38;65.78;101270.47;6315836;22;20007;-76
2021/06/06 01:00:29;;;;;;;0.63;0.63;;;;;;;15.38;65.89;101273.22;6316629;22;20021;-76
2021/06/06 01:02:55;;;;;;;;;;;;;;;15.38;64.92;101267.72;6285698;22;20052;-75
2021/06/06 01:05:29;;;;;;;;;;;;;;;15.38;65.58;101267.72;6288948;22;19914;-78
2021/06/06 01:07:56;;;;;;;0.93;0.93;;;;;;;15.24;64.91;101255.59;6288626;22;20386;-78
2021/06/06 01:10:22;;;;;;;0.70;0.70;;;;;;;15.19;65.95;101243.47;6287828;22;20007;-78
2021/06/06 01:13:19;;;;;;;0.70;0.70;;;;;;;15.31;65.42;101272.69;6288329;22;20018;-77
2021/06/06 01:15:50;;;;;;;1.17;0.80;;;;;;;15.24;65.32;101261.13;6306140;22;20010;-76
2021/06/06 01:18:45;;;;;;;0.60;0.60;;;;;;;15.31;64.94;101272.69;6313498;22;20014;-76
2021/06/06 01:21:25;;;;;;;0.70;0.70;;;;;;;15.30;65.79;101265.50;6314289;22;20491;-79
2021/06/06 01:24:20;;;;;;;0.43;0.43;;;;;;;15.29;65.93;101264.69;6289041;22;20068;-78
2021/06/06 01:27:31;;;;;;;0.30;0.30;;;;;;;15.25;65.36;101246.25;6291717;22;19995;-79
2021/06/06 01:30:00;;;;;;;1.20;0.50;;;;;;;15.36;64.99;101261.63;6272770;22;19999;-78
2021/06/06 01:32:35;;;;;;;0.55;0.55;;;;;;;15.29;65.44;101241.84;6288570;22;20018;-79
2021/06/06 01:35:33;;;;;;;0.30;0.30;;;;;;;15.46;65.09;101258.03;6291393;22;20023;-78
2021/06/06 01:38:35;;;;;;;0.22;0.22;;;;;;;15.42;65.63;101245.91;6253716;22;20018;-77
2021/06/06 01:41:15;;;;;;;0.98;0.30;;;;;;;15.51;65.52;101256.09;6268206;22;19995;-77
2021/06/06 01:43:48;;;;;;;0.30;0.30;;;;;;;15.48;64.83;101239.31;6299221;22;20003;-77
2021/06/06 01:46:26;;;;;;;0.30;0.30;;;;;;;15.52;65.09;101234.88;6295184;22;20003;-77
2021/06/06 01:48:54;;;;;;;0.50;0.50;;;;;;;15.52;64.82;101240.38;6303822;22;20003;-78
2021/06/06 01:51:49;;;;;;;0.57;0.57;;;;;;;15.58;64.80;101243.97;6330431;22;20009;-76
2021/06/06 01:54:19;;;;;;;0.85;0.85;;;;;;;15.49;65.09;101244.53;6322253;22;20021;-75
2021/06/06 01:56:48;;;;;;;2.28;1.08;;;;;;;15.50;65.19;101248.94;6283655;22;20005;-75
2021/06/06 01:59:22;;;;;;;0.75;0.50;;;;;;;15.58;65.43;101250.31;6315194;22;20009;-76
2021/06/06 02:01:55;;;;;;;1.00;0.60;;;;;;;15.52;65.39;101241.22;6318600;22;19995;-76
2021/06/06 02:04:25;;;;;;;0.50;0.50;;;;;;;15.54;65.09;101247.28;6311272;22;20004;-74
2021/06/06 02:06:58;;;;;;;0.50;0.43;;;;;;;15.44;64.75;101219.75;6317302;22;20007;-75
2021/06/06 02:09:52;;;;;;;0.35;0.35;;;;;;;15.51;65.27;101239.56;6312786;22;20026;-74
2021/06/06 02:12:25;;;;;;;0.40;0.40;;;;;;;15.39;64.91;101217.00;6316478;22;19999;-77
2021/06/06 02:15:00;;;;;;;1.27;0.90;;;;;;;15.37;65.51;101221.97;6285792;22;20054;-75
2021/06/06 02:17:30;;;;;;;1.00;0.90;;;;;;;15.42;65.90;101243.16;6288787;22;20031;-75
2021/06/06 02:20:03;;;;;;;0.95;0.73;;;;;;;15.45;66.28;101246.19;6315164;22;20049;-75
2021/06/06 02:22:30;;;;;;;1.38;1.02;;;;;;;15.34;66.44;101233.53;6289982;22;20021;-76
2021/06/06 02:24:57;;;;;;;0.73;0.73;;;;;;;15.41;66.30;101244.28;6238329;22;20011;-76
2021/06/06 02:27:35;;;;;;;0.90;0.90;;;;;;;15.39;65.88;101236.31;6264750;22;20012;-75
2021/06/06 02:30:16;;;;;;;0.57;0.57;;;;;;;15.40;66.37;101231.59;6285708;22;19996;-77
2021/06/06 02:32:59;;;;;;;1.30;0.80;;;;;;;15.50;66.37;101248.13;6286754;22;20090;-74
2021/06/06 02:35:35;;;;;;;0.80;0.80;;;;;;;15.53;66.22;101242.03;6287149;22;20071;-74
2021/06/06 02:38:25;;;;;;;1.98;0.73;;;;;;;15.56;66.14;101240.66;6316280;22;20074;-74
2021/06/06 02:41:26;;;;;;;0.75;0.75;;;;;;;15.59;65.89;101240.09;6286430;22;20422;-74
2021/06/06 02:43:59;;;;;;;0.50;0.50;;;;;;;15.61;65.93;101246.16;6283288;22;20083;-74
2021/06/06 02:46:25;;;;;;;0.65;0.60;;;;;;;15.58;65.96;101239.28;6314238;22;20020;-75
2021/06/06 02:48:59;;;;;;;3.92;1.42;;;;;;;15.62;66.56;101245.06;6315536;22;20003;-75
2021/06/06 02:51:26;;;;;;;0.88;0.88;;;;;;;15.65;65.96;101242.56;6287805;22;19999;-74
2021/06/06 02:54:02;;;;;;;0.35;0.35;;;;;;;15.69;66.19;101229.84;6317360;22;20010;-75
2021/06/06 02:56:29;;;;;;;;;;;;;;;15.85;65.46;101244.44;6290035;22;20007;-76
2021/06/06 02:58:59;;;;;;;1.27;0.40;;;;;;;15.78;65.66;101230.13;6287888;22;19906;-77
2021/06/06 03:01:39;;;;;;;0.50;0.50;;;;;;;15.84;65.93;101225.44;6289381;22;20068;-75
2021/06/06 03:04:09;;;;;;;0.50;0.50;;;;;;;15.88;65.61;101232.84;6289607;22;19999;-76
2021/06/06 03:06:42;;;;;;;0.32;0.32;;;;;;;15.81;65.99;101232.34;6289275;22;20005;-76
2021/06/06 03:09:10;;;;;;;0.55;0.52;;;;;;;15.68;65.37;101217.19;6291082;22;20038;-76
2021/06/06 03:11:38;;;;;;;2.25;1.65;;;;;;;15.78;66.12;101232.88;6317217;22;20010;-76
2021/06/06 03:14:08;;;;;;;2.70;0.60;;;;;;;15.70;65.68;101223.25;6292094;22;20051;-76
2021/06/06 03:16:37;;;;;;;1.70;0.82;;;;;;;15.72;65.94;101228.47;6292417;22;20027;-76
2021/06/06 03:19:06;;;;;;;0.40;0.40;;;;;;;15.69;66.42;101224.34;6328388;22;20011;-77
2021/06/06 03:21:44;;;;;;;1.67;1.58;;;;;;;15.65;66.11;101208.66;6317353;22;19991;-77
2021/06/06 03:24:41;;;;;;;3.20;1.75;;;;;;;15.61;66.28;101221.34;6293261;22;20007;-75
2021/06/06 03:27:09;;;;;;;2.63;2.10;;;;;;;15.41;67.27;101206.53;6316593;22;20034;-76
2021/06/06 03:29:47;;;;;;;5.90;2.17;;;;;;;15.48;67.30;101229.09;6290651;22;20007;-74
2021/06/06 03:32:22;;;;;;;2.90;2.33;;;;;;;15.40;67.65;101226.91;6289533;22;20009;-74
2021/06/06 03:34:49;;;;;;;2.88;2.58;;;;;;;15.43;68.15;101226.34;6291861;22;20007;-75
2021/06/06 03:37:22;;;;;;;1.60;1.50;;;;;;;15.40;67.83;101226.91;6265690;22;20017;-75
2021/06/06 03:39:48;;;;;;;1.65;1.55;;;;;;;15.34;68.15;101211.50;6319915;22;20003;-78
2021/06/06 03:42:14;;;;;;;1.63;1.40;;;;;;;15.28;68.03;101209.88;6319183;22;20006;-76
2021/06/06 03:44:39;;;;;;;2.17;0.90;;;;;;;15.31;67.43;101223.06;6286025;22;20003;-76
2021/06/06 03:47:08;;;;;;;0.50;0.50;;;;;;;15.30;68.11;101214.00;6290111;22;20064;-76
2021/06/06 03:49:34;;;;;;;1.33;1.23;;;;;;;15.33;68.04;101220.84;6286554;22;20022;-77
2021/06/06 03:52:04;;;;;;;1.35;1.08;;;;;;;15.38;68.51;101229.13;6292326;22;19999;-77
2021/06/06 03:54:31;;;;;;;1.80;1.63;;;;;;;15.34;68.52;101228.03;6311693;22;20007;-76
2021/06/06 03:56:57;;;;;;;1.85;1.75;;;;;;;15.29;68.58;101231.63;6241634;22;20018;-77
2021/06/06 03:59:23;;;;;;;3.00;1.50;;;;;;;15.27;68.61;101221.97;6265030;22;20333;-77
2021/06/06 04:01:50;;;;;;;2.33;2.22;;;;;;;15.24;69.69;101226.09;6309137;22;19999;-76
2021/06/06 04:04:16;;;;;;;3.75;2.00;;;;;;;15.21;69.30;101220.34;6318205;22;20029;-76
2021/06/06 04:06:49;;;;;;;2.45;2.25;;;;;;;15.22;69.68;101219.25;6261761;22;20007;-75
2021/06/06 04:09:19;;;;;;;2.15;1.92;;;;;;;15.22;69.72;101225.56;6317637;22;20033;-76
2021/06/06 04:11:45;;;;;;;1.50;1.50;;;;;;;15.22;69.22;101216.50;6286709;22;20011;-76
2021/06/06 04:14:17;;;;;;;1.58;1.45;;;;;;;15.17;69.74;101201.63;6289449;22;20015;-76
2021/06/06 04:16:43;;;;;;;2.00;1.75;;;;;;;15.20;69.43;101219.53;6318302;22;20015;-75
2021/06/06 04:19:14;;;;;;;4.97;1.60;;;;;;;15.16;70.06;101210.97;6317528;22;20066;-83
2021/06/06 04:21:39;;;;;;;1.58;1.48;;;;;;;15.15;69.59;101203.81;6296721;22;19995;-84
2021/06/06 04:24:15;;;;;;;2.55;2.25;;;;;;;15.23;69.66;101221.72;6293600;22;20030;-83
2021/06/06 04:26:40;;;;;;;0.75;0.75;;;;;;;15.28;69.19;101218.13;6272811;22;20099;-81
2021/06/06 04:29:08;;;;;;;1.00;1.00;;;;;;;15.18;69.83;101197.72;6290140;22;20011;-80
2021/06/06 04:31:44;;;;;;;1.33;1.17;;;;;;;15.25;69.28;101199.41;6294813;22;20003;-81
2021/06/06 04:34:10;;;;;;;1.85;1.40;;;;;;;15.25;69.98;101194.72;6289053;22;20049;-77
2021/06/06 04:36:48;;;;;;;;;;;;;;;;;;;;;
2021/06/06 04:39:16;;;;;;;1.42;1.35;;;;;;;15.29;69.61;101195.00;6318392;22;20026;-77
2021/06/06 04:41:49;;;;;;;3.20;2.40;;;;;;;15.33;69.67;101210.69;6291415;22;20000;-78
2021/06/06 04:44:22;;;;;;;8.98;2.78;;;;;;;15.31;70.33;101203.78;6289802;22;20006;-78
2021/06/06 04:46:50;;;;;;;2.60;2.40;;;;;;;15.43;70.21;101229.09;6289906;22;20006;-78
2021/06/06 04:49:18;;;;;;;2.38;2.17;;;;;;;15.28;70.18;101202.41;6287161;22;20010;-77
2021/06/06 04:51:44;;;;;;;2.05;1.92;;;;;;;15.37;70.33;101224.72;6291041;22;20473;-77
2021/06/06 04:54:14;;;;;;;3.47;3.28;;;;;;;15.50;70.42;101237.09;6292883;22;20006;-78
2021/06/06 04:56:44;;;;;;;3.15;2.65;;;;;;;15.52;70.96;101240.38;6289275;22;20010;-79
2021/06/06 04:59:12;;;;;;;1.80;1.70;;;;;;;15.44;70.59;101222.50;6292478;22;20029;-77
2021/06/06 05:01:37;;;;;;;2.70;2.40;;;;;;;15.42;71.26;101221.97;6253874;22;20010;-77
2021/06/06 05:04:06;;;;;;;1.63;1.52;;;;;;;15.63;71.05;101242.00;6286854;22;20434;-75
2021/06/06 05:06:31;;;;;;;1.80;1.70;;;;;;;15.62;70.58;101228.50;6263152;22;20035;-77
2021/06/06 05:08:59;;;;;;;1.55;1.45;;;;;;;15.73;70.36;101235.66;6274502;22;20441;-78
2021/06/06 05:11:35;;;;;;;1.17;1.15;;;;;;;15.67;70.42;101220.25;6250234;22;20015;-78
2021/06/06 05:14:09;;;;;;;1.48;1.38;;;;;;;15.71;70.89;101224.06;6279984;22;20018;-78
2021/06/06 05:16:37;;;;;;;1.70;1.60;;;;;;;15.66;70.23;101213.06;6302803;22;20011;-78
2021/06/06 05:19:08;;;;;;;1.70;1.58;;;;;;;15.73;70.75;101212.78;6299151;22;20019;-77
2021/06/06 05:21:38;;;;;;;3.40;2.53;;;;;;;15.83;70.52;101223.81;6273100;22;19999;-77
2021/06/06 05:24:07;;;;;;;2.65;2.30;;;;;;;15.84;70.54;101212.47;6300034;22;20010;-78
2021/06/06 05:26:33;;;;;;;2.35;2.15;;;;;;;15.92;70.25;101218.53;6327646;22;19999;-79
2021/06/06 05:29:01;;;;;;;2.50;2.30;;;;;;;15.96;70.55;101227.84;6297577;22;20014;-75
2021/06/06 05:31:35;;;;;;;3.88;2.70;;;;;;;15.88;70.52;101213.53;6293154;22;20007;-76
2021/06/06 05:34:03;;;;;;;3.28;3.08;;;;;;;15.97;70.58;101235.84;6321352;22;20040;-78
2021/06/06 05:36:36;;;;;;;5.25;3.55;;;;;;;16.05;70.75;101242.72;6290171;22;19999;-78
2021/06/06 05:39:07;;;;;;;1.80;1.70;;;;;;;16.09;71.00;101235.53;6290052;22;19999;-79
2021/06/06 05:41:33;;;;;;;2.85;2.50;;;;;;;16.21;70.78;101229.69;6297647;22;20009;-80
2021/06/06 05:43:58;;;;;;;6.30;1.98;;;;;;;16.35;70.51;101233.47;6262760;22;20007;-81
2021/06/06 05:46:24;;;;;;;3.55;3.35;;;;;;;16.58;70.77;101240.19;6244513;22;20022;-78
2021/06/06 05:48:59;;;;;;;3.15;2.95;;;;;;;16.58;70.09;101212.59;6290662;22;20461;-78
2021/06/06 05:51:27;;;;;;;3.22;3.00;;;;;;;16.77;69.88;101225.72;6294501;22;20291;-75
2021/06/06 05:54:02;;;;;;;1.85;1.75;;;;;;;16.84;69.56;101228.16;6285510;22;20014;-77
2021/06/06 05:56:30;;;;;;;4.10;3.08;;;;;;;16.90;69.71;101230.59;6314348;22;20007;-74
2021/06/06 05:58:56;;;;;;;2.97;2.42;;;;;;;16.88;69.46;101237.50;6315180;22;20003;-77
2021/06/06 06:01:22;;;;;;;4.80;2.42;;;;;;;16.98;69.41;101244.91;6291749;22;20006;-77
2021/06/06 06:03:48;;;;;;;2.00;1.80;;;;;;;17.00;69.48;101237.97;6260974;22;20148;-76
2021/06/06 06:06:14;;;;;;;3.08;2.78;;;;;;;17.04;69.27;101235.44;6313042;22;20006;-76
2021/06/06 06:08:50;;;;;;;1.35;1.35;;;;;;;17.20;68.86;101249.94;6290422;22;20013;-73
2021/06/06 06:11:18;;;;;;;1.60;1.50;;;;;;;17.20;68.94;101250.78;6287890;22;20063;-74
2021/06/06 06:13:45;;;;;;;0.88;0.88;;;;;;;17.17;68.77;101239.47;6288518;22;20078;-74
2021/06/06 06:16:21;;;;;;;2.25;1.17;;;;;;;17.16;68.58;101233.16;6288413;22;20007;-73
2021/06/06 06:18:51;;;;;;;1.75;1.65;;;;;;;17.24;68.59;101240.81;6283592;22;20007;-76
2021/06/06 06:21:18;;;;;;;1.38;1.38;;;;;;;17.38;68.50;101263.06;6290467;22;20098;-75
2021/06/06 06:23:46;;;;;;;2.30;2.10;;;;;;;17.33;68.05;101237.41;6316049;22;20003;-75
2021/06/06 06:26:12;;;;;;;2.00;1.90;;;;;;;17.39;67.87;101250.03;6263945;22;20446;-75
2021/06/06 06:28:40;;;;;;;1.63;1.63;;;;;;;17.44;67.92;101245.28;6262231;22;20015;-73
2021/06/06 06:31:13;;;;;;;1.80;1.70;;;;;;;17.43;67.81;101248.34;6289831;22;20022;-75
2021/06/06 06:33:50;;;;;;;1.63;1.52;;;;;;;17.42;67.57;101246.69;6285934;22;20126;-74
2021/06/06 06:36:18;;;;;;;1.77;1.60;;;;;;;17.44;67.48;101236.19;6317021;22;20057;-74
2021/06/06 06:38:46;;;;;;;1.00;0.98;;;;;;;17.54;67.55;101265.69;6291047;22;20051;-74
2021/06/06 06:41:16;;;;;;;1.63;1.52;;;;;;;17.39;67.80;101244.53;6317380;22;19995;-75
2021/06/06 06:43:54;;;;;;;;;;;;;;;;;;;;;
2021/06/06 06:46:20;;;;;;;1.38;1.27;;;;;;;17.47;67.67;101266.00;6289704;22;20034;-75
2021/06/06 06:48:48;;;;;;;1.90;1.50;;;;;;;17.28;67.74;101241.84;6287452;22;20003;-75
2021/06/06 06:51:18;;;;;;;1.70;1.60;;;;;;;17.33;67.68;101252.03;6289947;22;20007;-74
2021/06/06 06:53:55;;;;;;;;;;;;;;;;;;;;;
2021/06/06 06:56:29;;;;;;;1.45;1.30;;;;;;;17.36;68.33;101242.34;6315947;22;20019;-75
2021/06/06 06:58:56;;;;;;;1.50;1.50;;;;;;;17.60;67.98;101259.78;6287553;22;20037;-75
2021/06/06 07:01:28;;;;;;;1.63;1.52;;;;;;;17.71;67.36;101265.19;6316502;22;20003;-74
2021/06/06 07:03:54;;;;;;;1.52;1.42;;;;;;;17.81;67.00;101276.16;6292638;22;20057;-75
2021/06/06 07:06:20;;;;;;;2.03;1.67;;;;;;;17.77;66.81;101269.53;6314877;22;20169;-74
2021/06/06 07:08:49;;;;;;;5.53;2.17;;;;;;;17.71;67.06;101270.72;6321139;22;20558;-75
2021/06/06 07:11:18;;;;;;;1.30;1.15;;;;;;;17.59;66.84;101280.25;6291312;22;20003;-74
2021/06/06 07:13:46;;;;;;;3.58;1.30;;;;;;;17.56;67.17;101277.25;6321003;22;20007;-74
2021/06/06 07:16:22;;;;;;;2.22;1.33;;;;;;;17.54;67.39;101277.56;6290907;22;20003;-74
2021/06/06 07:19:04;;;;;;;1.58;1.48;;;;;;;17.56;67.50;101269.78;6319010;22;20030;-74
2021/06/06 07:21:30;;;;;;;1.30;1.20;;;;;;;17.60;67.26;101270.03;6319402;22;20050;-75
2021/06/06 07:24:01;;;;;;;1.10;1.02;;;;;;;17.44;67.48;101258.31;6292842;22;20061;-75
2021/06/06 07:26:51;;;;;;;;;;;;;;;;;;;;;
2021/06/06 07:29:28;;;;;;;0.68;0.68;;;;;;;17.14;67.72;101256.66;6319941;22;20039;-75
2021/06/06 07:32:02;;;;;;;0.52;0.52;;;;;;;17.28;67.72;101279.75;6317526;22;20055;-76
2021/06/06 07:34:37;;;;;;;1.63;0.77;;;;;;;17.06;68.07;101249.81;6321111;22;20022;-76
2021/06/06 07:37:06;;;;;;;1.10;1.10;;;;;;;17.12;67.98;101268.00;6320059;22;19999;-76
2021/06/06 07:39:33;;;;;;;1.08;1.08;;;;;;;17.09;68.64;101276.88;6294187;22;20007;-76
2021/06/06 07:41:59;;;;;;;0.85;0.85;;;;;;;17.00;69.07;101267.56;6292593;22;20055;-77
2021/06/06 07:44:25;;;;;;;0.80;0.80;;;;;;;17.04;69.10;101263.06;6290129;22;19995;-74
2021/06/06 07:47:02;;;;;;;1.05;1.05;;;;;;;17.14;69.31;101265.75;6319300;22;19999;-74
2021/06/06 07:49:28;;;;;;;0.90;0.90;;;;;;;17.47;69.15;101277.06;6320738;22;20010;-76
2021/06/06 07:51:56;;;;;;;1.67;1.30;;;;;;;17.75;68.80;101261.53;6266880;22;20418;-75
2021/06/06 07:54:22;;;;;;;1.25;1.25;;;;;;;18.14;67.76;101274.38;6297176;22;20067;-76
2021/06/06 07:56:57;;;;;;;1.08;1.08;;;;;;;18.37;66.62;101271.03;6274090;22;20029;-78
2021/06/06 07:59:33;;;;;;;;;;;;;;;;;;;;;
2021/06/06 08:02:02;;;;;;;0.80;0.80;;;;;;;18.44;65.62;101254.88;6321277;22;20019;-77
2021/06/06 08:04:28;;;;;;;0.57;0.57;;;;;;;18.52;66.01;101261.72;6290268;22;20486;-77
2021/06/06 08:06:56;;;;;;;0.80;0.80;;;;;;;18.64;65.77;101265.66;6292607;22;20007;-76
2021/06/06 08:09:28;;;;;;;0.63;0.63;;;;;;;18.95;65.75;101281.88;6266620;22;20045;-76
2021/06/06 08:11:56;;;;;;;0.80;0.80;;;;;;;19.08;64.50;101260.84;6292030;22;20051;-74
2021/06/06 08:14:21;;;;;;;0.60;0.60;;;;;;;19.21;63.69;101256.47;6265870;22;20015;-75
2021/06/06 08:16:52;;;;;;;0.40;0.40;;;;;;;19.24;63.87;101266.94;6318120;22;20024;-74
2021/06/06 08:19:25;;;;;;;0.40;0.40;;;;;;;19.44;64.11;101270.50;6314117;22;20006;-73
2021/06/06 08:21:53;;;;;;;0.82;0.52;;;;;;;19.74;63.23;101279.34;6292090;22;20062;-76
2021/06/06 08:24:26;;;;;;;0.77;0.73;;;;;;;19.92;62.13;101272.91;6318680;22;20066;-75
2021/06/06 08:26:54;;;;;;;1.77;0.50;;;;;;;20.02;61.34;101269.94;6266904;22;20011;-74
2021/06/06 08:29:43;;;;;;;;;;;;;;;;;;;;;
2021/06/06 08:36:32;;;;;;;0.52;0.52;;;;;;;19.59;60.72;101245.22;6197069;23;20064;-77
2021/06/06 08:38:59;;;;;;;0.73;0.50;;;;;;;19.47;60.88;101259.59;6203709;22;20015;-73
2021/06/06 08:42:09;;;;;;;0.35;0.30;;;;;;;19.50;61.08;101274.81;6259835;22;20058;-77
2021/06/06 08:52:15;;;;;;;0.20;0.20;;;;;;;18.53;62.68;101258.66;6063362;23;20366;-74
2021/06/06 08:58:57;;;;;;;0.90;0.55;;;;;;;18.56;64.13;101274.66;6010661;23;20216;-77
2021/06/06 09:01:38;;;;;;;1.40;0.60;;;;;;;18.60;63.84;101272.94;6037731;23;20059;-70
2021/06/06 09:15:02;;;;;;;0.40;0.40;;;;;;;20.15;61.05;101284.09;5934858;24;20017;-76
2021/06/06 09:17:45;;;;;;;0.30;0.30;;;;;;;20.54;60.93;101274.34;6002936;23;20012;-76
2021/06/06 09:20:42;;;;;;;0.40;0.38;;;;;;;20.51;58.53;101275.78;6258072;22;20008;-76
2021/06/06 09:23:30;;;;;;;0.30;0.30;;;;;;;20.47;58.63;101271.19;6225219;22;20004;-76
2021/06/06 09:26:07;;;;;;;0.45;0.45;;;;;;;20.30;59.24;101258.78;6256143;22;20003;-74
2021/06/06 09:28:54;;;;;;;0.35;0.30;;;;;;;20.42;59.32;101271.31;6246010;22;20367;-73
2021/06/06 09:31:31;;;;;;;0.32;0.25;;;;;;;20.64;58.40;101278.88;6275113;22;20023;-75
2021/06/06 09:34:21;;;;;;;0.35;0.30;;;;;;;21.02;58.43;101298.81;6246978;22;20028;-74
2021/06/06 09:37:15;;;;;;;0.22;0.22;;;;;;;21.41;56.95;101302.03;6245249;22;20498;-76
2021/06/06 09:41:19;;;;;;;;;;;;;;;;;;;;;
2021/06/06 09:50:29;;;;;;;;;;;;;;;;;;;;;
2021/06/06 09:53:30;;;;;;;0.30;0.30;;;;;;;21.48;56.33;101280.13;6284291;22;20028;-74
2021/06/06 09:56:29;;;;;;;0.25;0.25;;;;;;;21.84;56.25;101307.00;6284573;22;20003;-75
2021/06/06 09:59:28;;;;;;;0.25;0.17;;;;;;;22.11;56.02;101286.47;6258706;22;20559;-75
2021/06/06 10:02:13;;;;;;;2.92;0.20;;;;;;;22.50;55.01;101309.00;6263374;22;20000;-77
2021/06/06 10:08:06;;;;;;;0.22;0.22;;;;;;;22.70;53.27;101317.91;6279695;22;20386;-76
2021/06/06 10:15:20;;;;;;;;;;;;;;;;;;;;;
2021/06/06 10:17:56;;;;;;;0.30;0.30;;;;;;;23.32;51.75;101322.31;6258668;22;20014;-77
2021/06/06 10:20:31;;;;;;;0.50;0.50;;;;;;;23.28;51.14;101297.03;6273090;22;20090;-73
2021/06/06 10:23:28;;;;;;;0.68;0.43;;;;;;;23.45;50.95;101296.19;6260149;22;20000;-75
2021/06/06 10:25:57;;;;;;;0.20;0.20;;;;;;;23.57;50.82;101319.78;6246757;22;20091;-75
2021/06/06 10:28:54;;;;;;;0.40;0.40;;;;;;;23.49;50.42;101304.69;6259350;22;20027;-75
2021/06/06 10:31:23;;;;;;;0.20;0.20;;;;;;;23.34;50.25;101311.63;6250947;22;20414;-76
2021/06/06 10:34:01;;;;;;;0.40;0.40;;;;;;;23.13;50.05;101303.97;6273048;22;20026;-75
2021/06/06 10:36:30;;;;;;;0.45;0.45;;;;;;;22.81;50.17;101303.28;6295677;22;20026;-73
2021/06/06 10:38:56;;;;;;;0.28;0.28;;;;;;;22.77;50.87;101307.06;6293770;22;19999;-74
2021/06/06 10:41:35;;;;;;;0.30;0.30;;;;;;;22.76;50.66;101320.19;6292721;22;20036;-76
2021/06/06 10:44:37;;;;;;;0.40;0.40;;;;;;;22.44;51.17;101300.00;6292695;22;20090;-74
2021/06/06 10:47:15;;;;;;;0.20;0.20;;;;;;;22.36;52.07;101309.16;6291276;22;20021;-77
2021/06/06 10:49:53;;;;;;;0.30;0.30;;;;;;;22.33;51.94;101315.38;6266233;22;20407;-77
2021/06/06 10:52:32;;;;;;;0.30;0.30;;;;;;;22.24;51.58;101323.69;6321346;22;20004;-75
2021/06/06 10:55:27;;;;;;;0.45;0.45;;;;;;;22.06;51.77;101311.66;6313808;22;20078;-74
2021/06/06 10:57:53;;;;;;;0.30;0.30;;;;;;;22.10;52.07;101328.56;6314438;22;20003;-75
2021/06/06 11:00:34;;;;;;;0.40;0.40;;;;;;;22.02;52.56;101321.81;6319700;22;20007;-76
2021/06/06 11:03:11;;;;;;;0.20;0.20;;;;;;;21.93;52.83;101301.47;6317735;22;20010;-74
2021/06/06 11:05:57;;;;;;;0.20;0.20;;;;;;;22.08;52.96;101312.19;6314508;22;20140;-76
2021/06/06 11:08:33;;;;;;;0.20;0.20;;;;;;;22.23;52.63;101304.50;6317186;22;20025;-76
2021/06/06 11:11:33;;;;;;;0.30;0.30;;;;;;;22.32;51.89;101319.31;6317863;22;20030;-77
2021/06/06 11:18:17;;;;;;;0.30;0.20;;;;;;;22.26;51.95;101317.78;6316008;22;20465;-75
2021/06/06 11:20:54;;;;;;;0.28;0.20;;;;;;;22.09;52.15;101316.59;6197238;23;20417;-75
2021/06/06 11:23:37;;;;;;;0.20;0.20;;;;;;;21.99;51.98;101300.19;6222975;23;20090;-75
2021/06/06 11:26:23;;;;;;;0.10;0.10;;;;;;;22.14;51.77;101316.44;6307106;22;19999;-76
2021/06/06 11:28:57;;;;;;;;;;;;;;;22.37;51.54;101321.94;6293058;22;20064;-75
2021/06/06 11:31:32;;;;;;;0.20;0.20;;;;;;;22.30;51.65;101313.22;6290406;22;19986;-74
2021/06/06 11:34:20;;;;;;;0.80;0.60;;;;;;;22.45;51.54;101321.13;6318972;22;20033;-75
2021/06/06 11:36:52;;;;;;;0.30;0.30;;;;;;;22.52;51.13;101314.28;6307949;22;20010;-75
2021/06/06 11:39:46;;;;;;;0.38;0.38;;;;;;;22.91;51.08;101318.03;6320794;22;19999;-74
2021/06/06 11:42:39;;;;;;;0.30;0.30;;;;;;;23.27;50.76;101314.13;6317900;22;19999;-75
2021/06/06 11:45:35;;;;;;;0.28;0.28;;;;;;;23.47;49.60;101319.00;6316433;22;20010;-75
2021/06/06 11:48:19;;;;;;;0.80;0.40;;;;;;;23.73;48.91;101314.47;6319292;22;20007;-75
2021/06/06 11:51:16;;;;;;;0.22;0.22;;;;;;;24.23;48.32;101306.22;6288164;22;20030;-75
2021/06/06 11:53:50;;;;;;;0.10;0.10;;;;;;;24.71;48.38;101303.28;6320246;22;20065;-74
2021/06/06 11:56:24;;;;;;;0.22;0.22;;;;;;;25.34;47.21;101325.63;6291834;22;20003;-75
2021/06/06 11:59:22;;;;;;;0.47;0.40;;;;;;;26.50;45.71;101316.25;6317856;22;20025;-73
2021/06/06 12:01:50;;;;;;;0.30;0.20;;;;;;;27.99;44.00;101331.28;6286423;22;20239;-77
2021/06/06 12:04:28;;;;;;;0.30;0.30;;;;;;;29.43;42.59;101323.16;6319933;22;20011;-75
2021/06/06 12:06:56;;;;;;;0.20;0.20;;;;;;;30.36;38.63;101330.72;6314781;22;20031;-74
2021/06/06 12:09:35;;;;;;;0.10;0.10;;;;;;;30.68;36.20;101319.94;6292490;22;20330;-74
2021/06/06 12:12:28;;;;;;;0.10;0.10;;;;;;;31.86;37.60;101325.28;6317561;22;20083;-74
2021/06/06 12:15:21;;;;;;;0.10;0.10;;;;;;;32.79;34.15;101310.94;6269768;22;20010;-75
2021/06/06 12:18:01;;;;;;;0.17;0.17;;;;;;;33.41;32.26;101317.63;6303793;22;19995;-72
2021/06/06 12:20:29;;;;;;;0.20;0.20;;;;;;;33.58;29.48;101305.47;6289228;22;20043;-72
2021/06/06 12:23:05;;;;;;;0.20;0.10;;;;;;;33.70;29.19;101309.13;6316443;22;20003;-74
2021/06/06 12:25:35;;;;;;;0.10;0.10;;;;;;;33.65;29.41;101303.88;6319886;22;20022;-73
2021/06/06 12:28:18;;;;;;;0.10;0.10;;;;;;;34.31;30.98;101311.16;6315385;22;20078;-73
2021/06/06 12:30:49;;;;;;;0.10;0.10;;;;;;;36.18;30.60;101321.44;6319067;22;19999;-73
2021/06/06 12:33:41;;;;;;;0.00;0.00;;;;;;;37.52;25.22;101304.28;6316924;22;20043;-73
2021/06/06 12:36:35;;;;;;;0.00;0.00;;;;;;;39.91;27.07;101288.66;6285392;22;20006;-77
2021/06/06 12:39:04;;;;;;;0.00;0.00;;;;;;;41.24;24.05;101309.81;6312719;22;20028;-75
2021/06/06 12:41:53;;;;;;;0.10;0.10;;;;;;;41.61;23.10;101307.41;6318050;22;19999;-75
2021/06/06 12:44:25;;;;;;;0.10;0.10;;;;;;;41.45;21.63;101286.19;6288538;22;20007;-74
2021/06/06 12:46:57;;;;;;;0.08;0.00;;;;;;;41.93;22.02;101286.22;6291942;22;20003;-75
2021/06/06 12:49:49;;;;;;;0.10;0.10;;;;;;;42.39;20.19;101297.28;6284526;22;20080;-75
2021/06/06 12:53:11;;;;;;;1.15;0.10;;;;;;;42.00;19.43;101283.06;6291510;22;20315;-77
2021/06/06 12:55:40;;;;;;;0.10;0.10;;;;;;;41.18;19.35;101281.72;6197757;23;20004;-75
2021/06/06 12:58:19;;;;;;;0.22;0.17;;;;;;;40.76;18.91;101296.13;6221413;23;20001;-76